createdAt,value
2022-12-15T00:02:17.081Z,99357.09
2022-12-15T00:05:02.315Z,99345.09
2022-12-15T00:07:47.726Z,99327.22
2022-12-15T00:10:33.052Z,99328.06
2022-12-15T00:13:18.495Z,99345.22
2022-12-15T00:16:07.527Z,99335.75
2022-12-15T00:18:53.371Z,99342.66
2022-12-15T00:21:39.114Z,99333.28
2022-12-15T00:24:24.991Z,99319.59
2022-12-15T00:27:10.169Z,99324.72
2022-12-15T00:29:55.864Z,99317.84
2022-12-15T00:32:41.710Z,99318.72
2022-12-15T00:35:28.042Z,99303.38
2022-12-15T00:38:13.572Z,99305.06
2022-12-15T00:40:40.333Z,99302.53
2022-12-15T00:43:12.319Z,99282.00
2022-12-15T00:45:57.720Z,99281.13
2022-12-15T00:48:24.456Z,99280.31
2022-12-15T00:50:54.016Z,99283.72
2022-12-15T00:53:40.858Z,99264.94
2022-12-15T00:56:27.421Z,99274.31
2022-12-15T00:59:13.023Z,99274.34
2022-12-15T01:01:58.474Z,99251.22
2022-12-15T01:04:44.080Z,99273.47
2022-12-15T01:07:29.273Z,99265.75
2022-12-15T01:10:14.545Z,99258.91
2022-12-15T01:13:00.465Z,99276.00
2022-12-15T01:15:45.870Z,99246.09
2022-12-15T01:18:31.679Z,99266.63
2022-12-15T01:21:00.368Z,99264.06
2022-12-15T01:23:27.946Z,99266.63
2022-12-15T01:25:55.454Z,99246.09
2022-12-15T01:28:22.710Z,99255.50
2022-12-15T01:30:49.881Z,99252.91
2022-12-15T01:33:17.506Z,99258.03
2022-12-15T01:35:44.342Z,99253.69
2022-12-15T01:38:11.596Z,99252.00
2022-12-15T01:40:47.396Z,99245.22
2022-12-15T01:43:20.250Z,99233.25
2022-12-15T01:45:51.188Z,99234.97
2022-12-15T01:48:27.776Z,99229.81
2022-12-15T01:51:34.376Z,99218.75
2022-12-15T01:54:07.596Z,99217.88
2022-12-15T01:56:40.324Z,99211.91
2022-12-15T01:59:09.826Z,99200.78
2022-12-15T02:01:36.941Z,99199.09
2022-12-15T02:04:03.840Z,99191.41
2022-12-15T02:06:30.795Z,99192.22
2022-12-15T02:08:58.906Z,99193.97
2022-12-15T02:11:44.701Z,99182.00
2022-12-15T02:14:12.828Z,99169.13
2022-12-15T02:16:39.641Z,99163.97
2022-12-15T02:19:09.062Z,99162.31
2022-12-15T02:22:01.897Z,99164.00
2022-12-15T02:24:40.745Z,99166.56
2022-12-15T02:27:20.587Z,99158.00
2022-12-15T02:30:05.125Z,99170.84
2022-12-15T02:32:37.870Z,99160.59
2022-12-15T02:35:09.827Z,99175.13
2022-12-15T02:37:38.315Z,99175.97
2022-12-15T02:40:07.789Z,99177.69
2022-12-15T02:42:37.244Z,99179.41
2022-12-15T02:45:09.770Z,99170.84
2022-12-15T02:47:46.376Z,99172.56
2022-12-15T02:50:28.978Z,99175.13
2022-12-15T02:53:27.795Z,99154.59
2022-12-15T02:55:57.651Z,99152.03
2022-12-15T02:58:30.001Z,99158.88
2022-12-15T03:01:03.922Z,99146.91
2022-12-15T03:03:33.450Z,99149.47
2022-12-15T03:06:02.390Z,99140.91
2022-12-15T03:08:29.918Z,99148.63
2022-12-15T03:10:57.430Z,99145.22
2022-12-15T03:13:24.960Z,99134.09
2022-12-15T03:15:52.734Z,99141.78
2022-12-15T03:18:19.349Z,99150.31
2022-12-15T03:20:46.101Z,99146.91
2022-12-15T03:23:12.860Z,99143.50
2022-12-15T03:25:39.658Z,99117.00
2022-12-15T03:28:06.401Z,99122.16
2022-12-15T03:30:33.178Z,99107.59
2022-12-15T03:33:00.054Z,99104.16
2022-12-15T03:35:26.764Z,99102.47
2022-12-15T03:37:53.459Z,99084.53
2022-12-15T03:40:20.139Z,99093.94
2022-12-15T03:42:49.429Z,99098.19
2022-12-15T03:45:21.811Z,99099.03
2022-12-15T03:47:49.841Z,99098.19
2022-12-15T03:50:19.517Z,99087.91
2022-12-15T03:52:50.616Z,99083.66
2022-12-15T03:55:17.355Z,99058.00
2022-12-15T03:57:44.026Z,99073.41
2022-12-15T04:00:12.130Z,99079.38
2022-12-15T04:02:38.958Z,99082.78
2022-12-15T04:05:06.085Z,99105.00
2022-12-15T04:07:32.821Z,99105.00
2022-12-15T04:09:59.463Z,99109.25
2022-12-15T04:12:26.315Z,99099.00
2022-12-15T04:14:54.130Z,99091.34
2022-12-15T04:17:20.831Z,99073.41
2022-12-15T04:20:06.404Z,99071.69
2022-12-15T04:22:33.098Z,99078.53
2022-12-15T04:25:19.663Z,99085.38
2022-12-15T04:28:04.795Z,99072.53
2022-12-15T04:30:50.620Z,99072.56
2022-12-15T04:33:36.341Z,99058.00
2022-12-15T04:36:21.711Z,99052.06
2022-12-15T04:39:07.010Z,99047.75
2022-12-15T04:41:52.206Z,99058.88
2022-12-15T04:44:37.650Z,99038.38
2022-12-15T04:47:23.215Z,99040.94
2022-12-15T04:50:08.310Z,99035.81
2022-12-15T04:52:53.549Z,99037.53
2022-12-15T04:55:38.730Z,99023.00
2022-12-15T04:58:28.068Z,99026.44
2022-12-15T05:01:16.378Z,99017.88
2022-12-15T05:04:02.191Z,99029.84
2022-12-15T05:06:47.404Z,99035.81
2022-12-15T05:09:32.774Z,99019.59
2022-12-15T05:12:18.121Z,99028.97
2022-12-15T05:15:03.452Z,99014.47
2022-12-15T05:17:49.310Z,99011.91
2022-12-15T05:20:34.717Z,99038.38
2022-12-15T05:23:19.979Z,99033.25
2022-12-15T05:26:05.269Z,99018.72
2022-12-15T05:28:50.493Z,99016.16
2022-12-15T05:31:35.899Z,98999.06
2022-12-15T05:34:05.559Z,99018.72
2022-12-15T05:36:33.476Z,99006.72
2022-12-15T05:39:00.141Z,99006.75
2022-12-15T05:41:27.092Z,98996.47
2022-12-15T05:43:53.728Z,98985.38
2022-12-15T05:46:20.483Z,98983.66
2022-12-15T05:48:47.401Z,98994.78
2022-12-15T05:51:14.601Z,98993.06
2022-12-15T05:53:41.806Z,98989.66
2022-12-15T05:56:14.058Z,99007.59
2022-12-15T05:58:45.389Z,99009.28
2022-12-15T06:01:17.286Z,99020.38
2022-12-15T06:03:44.656Z,99023.81
2022-12-15T06:06:13.215Z,99020.38
2022-12-15T06:08:41.236Z,99021.22
2022-12-15T06:11:08.323Z,99020.38
2022-12-15T06:13:35.467Z,99006.69
2022-12-15T06:16:13.970Z,99001.50
2022-12-15T06:18:44.513Z,98999.84
2022-12-15T06:21:19.250Z,98996.44
2022-12-15T06:23:46.441Z,98972.47
2022-12-15T06:26:18.981Z,98993.84
2022-12-15T06:28:46.656Z,98983.53
2022-12-15T06:31:14.672Z,98992.09
2022-12-15T06:33:41.480Z,98986.13
2022-12-15T06:36:12.892Z,98967.31
2022-12-15T06:38:40.307Z,99004.06
2022-12-15T06:41:07.659Z,98988.63
2022-12-15T06:43:34.683Z,98999.75
2022-12-15T06:46:02.921Z,98997.22
2022-12-15T06:48:30.371Z,98988.63
2022-12-15T06:50:57.383Z,98999.75
2022-12-15T06:53:24.679Z,98992.00
2022-12-15T06:55:51.745Z,98980.88
2022-12-15T06:58:18.465Z,98991.13
2022-12-15T07:00:46.691Z,98997.13
2022-12-15T07:03:17.100Z,99004.00
2022-12-15T07:05:44.744Z,99003.97
2022-12-15T07:08:15.719Z,99003.97
2022-12-15T07:10:44.302Z,98999.69
2022-12-15T07:13:14.269Z,99002.25
2022-12-15T07:15:44.678Z,98999.72
2022-12-15T07:18:11.394Z,98989.44
2022-12-15T07:20:38.346Z,99002.22
2022-12-15T07:23:08.177Z,99011.56
2022-12-15T07:25:36.314Z,99003.00
2022-12-15T07:28:03.688Z,99007.34
2022-12-15T07:30:35.104Z,99014.97
2022-12-15T07:33:05.788Z,98993.56
2022-12-15T07:35:32.900Z,99012.34
2022-12-15T07:38:00.455Z,99001.16
2022-12-15T07:40:27.214Z,99008.84
2022-12-15T07:42:54.019Z,99003.69
2022-12-15T07:45:21.969Z,98993.44
2022-12-15T07:47:50.546Z,98997.69
2022-12-15T07:50:18.873Z,98997.72
2022-12-15T07:52:46.374Z,98983.16
2022-12-15T07:55:13.259Z,98993.38
2022-12-15T07:57:39.900Z,99001.00
2022-12-15T08:00:09.297Z,98998.41
2022-12-15T08:02:36.139Z,99012.84
2022-12-15T08:05:02.875Z,99005.22
2022-12-15T08:07:29.535Z,99017.16
2022-12-15T08:09:56.240Z,99021.38
2022-12-15T08:12:22.907Z,99010.19
2022-12-15T08:14:50.765Z,99010.22
2022-12-15T08:17:17.605Z,99013.63
2022-12-15T08:19:44.313Z,99016.19
2022-12-15T08:22:12.316Z,99021.38
2022-12-15T08:24:40.706Z,99018.69
2022-12-15T08:27:08.364Z,99000.75
2022-12-15T08:29:51.935Z,99006.69
2022-12-15T08:32:19.383Z,99004.94
2022-12-15T08:34:51.498Z,99003.25
2022-12-15T08:37:18.394Z,98988.69
2022-12-15T08:39:45.139Z,99004.97
2022-12-15T08:42:12.070Z,99000.72
2022-12-15T08:44:38.797Z,98996.34
2022-12-15T08:47:05.681Z,99004.06
2022-12-15T08:49:32.326Z,99009.22
2022-12-15T08:51:59.028Z,99017.69
2022-12-15T08:54:25.706Z,99020.34
2022-12-15T08:56:52.469Z,99021.06
2022-12-15T08:59:19.508Z,99021.06
2022-12-15T09:01:46.428Z,99019.47
2022-12-15T09:04:13.429Z,99037.44
2022-12-15T09:06:40.222Z,99023.78
2022-12-15T09:09:08.984Z,99027.09
2022-12-15T09:11:35.768Z,99024.50
2022-12-15T09:14:03.518Z,99014.31
2022-12-15T09:16:30.467Z,99024.59
2022-12-15T09:18:58.949Z,99025.25
2022-12-15T09:21:27.880Z,99013.22
2022-12-15T09:24:00.522Z,99013.19
2022-12-15T09:26:30.234Z,99014.03
2022-12-15T09:28:57.648Z,99013.94
2022-12-15T09:31:28.599Z,99011.41
2022-12-15T09:33:56.988Z,99020.78
2022-12-15T09:36:24.411Z,99022.50
2022-12-15T09:38:51.296Z,99021.59
2022-12-15T09:41:27.540Z,99029.28
2022-12-15T09:44:10.893Z,99027.56
2022-12-15T09:47:00.028Z,99023.22
2022-12-15T09:49:54.315Z,99027.50
2022-12-15T09:52:46.544Z,99025.72
2022-12-15T09:55:18.959Z,99026.47
2022-12-15T09:58:09.141Z,99029.81
2022-12-15T10:00:43.577Z,99020.47
2022-12-15T10:03:22.046Z,99034.94
2022-12-15T10:06:18.312Z,99027.22
2022-12-15T10:08:55.257Z,99025.44
2022-12-15T10:11:30.788Z,99025.44
2022-12-15T10:14:11.507Z,99027.94
2022-12-15T10:17:07.546Z,99023.66
2022-12-15T10:19:37.548Z,99026.97
2022-12-15T10:22:04.332Z,99012.44
2022-12-15T10:25:08.003Z,99022.84
2022-12-15T10:27:44.399Z,99021.94
2022-12-15T10:30:12.963Z,99025.56
2022-12-15T10:32:51.681Z,99033.97
2022-12-15T10:35:23.122Z,99035.72
2022-12-15T10:37:50.243Z,99033.94
2022-12-15T10:40:52.273Z,99038.19
2022-12-15T10:43:28.050Z,99039.88
2022-12-15T10:46:22.093Z,99028.78
2022-12-15T10:48:54.604Z,99027.69
2022-12-15T10:51:37.226Z,99028.63
2022-12-15T10:54:10.061Z,99019.06
2022-12-15T10:56:59.450Z,99025.91
2022-12-15T10:59:31.973Z,99014.78
2022-12-15T11:05:15.997Z,99033.69
2022-12-15T11:07:42.596Z,99033.69
2022-12-15T11:10:18.665Z,99034.44
2022-12-15T11:12:58.713Z,99037.78
2022-12-15T11:15:31.510Z,99047.34
2022-12-15T11:18:11.406Z,99051.59
2022-12-15T11:20:44.920Z,99055.03
2022-12-15T11:23:51.703Z,99051.69
2022-12-15T11:26:31.079Z,99047.50
2022-12-15T11:29:07.008Z,99048.16
2022-12-15T11:31:40.864Z,99049.75
2022-12-15T11:34:15.534Z,99053.22
2022-12-15T11:37:07.009Z,99048.78
2022-12-15T11:40:11.413Z,99048.13
2022-12-15T11:42:41.080Z,99055.72
2022-12-15T11:45:24.751Z,99057.53
2022-12-15T11:48:14.006Z,99063.44
2022-12-15T11:51:18.644Z,99063.50
2022-12-15T11:53:51.327Z,99059.91
2022-12-15T11:56:27.040Z,99061.03
2022-12-15T11:58:56.822Z,99058.28
2022-12-15T12:01:52.584Z,99071.22
2022-12-15T12:04:26.063Z,99069.66
2022-12-15T12:07:02.048Z,99073.69
2022-12-15T12:09:59.187Z,99068.66
2022-12-15T12:12:45.123Z,99063.59
2022-12-15T12:15:57.079Z,99067.84
2022-12-15T12:18:28.351Z,99071.19
2022-12-15T12:21:04.369Z,99072.16
2022-12-15T12:23:58.644Z,99066.25
2022-12-15T12:26:44.012Z,99074.59
2022-12-15T12:29:28.350Z,99085.03
2022-12-15T12:32:04.039Z,99075.53
2022-12-15T12:35:31.523Z,99075.72
2022-12-15T12:37:45.625Z,99073.78
2022-12-15T12:40:41.720Z,99077.38
2022-12-15T12:43:13.498Z,99075.50
2022-12-15T12:45:56.338Z,99079.00
2022-12-15T12:48:25.932Z,99082.47
2022-12-15T12:51:07.574Z,99085.13
2022-12-15T12:53:34.974Z,99084.31
2022-12-15T12:56:01.940Z,99077.53
2022-12-15T12:58:38.903Z,99089.53
2022-12-15T13:01:13.118Z,99090.38
2022-12-15T13:03:40.675Z,99091.19
2022-12-15T15:03:10.417Z,99022.56
2022-12-15T16:43:24.262Z,99208.97
2022-12-15T16:45:53.452Z,99227.81
2022-12-15T16:48:21.145Z,99213.22
2022-12-15T16:50:53.136Z,99231.31
2022-12-15T16:53:32.471Z,99239.06
2022-12-15T16:56:01.792Z,99243.28
2022-12-15T16:58:29.370Z,99242.47
2022-12-15T17:00:56.302Z,99244.19
2022-12-15T17:03:26.035Z,99248.41
2022-12-15T17:05:58.338Z,99239.97
2022-12-15T17:08:27.428Z,99242.44
2022-12-15T17:10:54.330Z,99242.38
2022-12-15T17:13:41.912Z,99231.28
2022-12-15T17:16:14.364Z,99216.69
2022-12-15T17:18:42.784Z,99218.38
2022-12-15T17:21:15.560Z,99208.03
2022-12-15T17:23:44.611Z,99203.75
2022-12-15T17:26:29.196Z,99208.09
2022-12-15T17:28:59.588Z,99202.03
2022-12-15T17:31:35.326Z,99198.59
2022-12-15T17:34:34.831Z,99208.03
2022-12-15T17:37:03.431Z,99212.34
2022-12-15T17:39:30.796Z,99205.50
2022-12-15T17:42:01.055Z,99209.72
2022-12-15T17:44:36.706Z,99212.22
2022-12-15T17:47:06.423Z,99207.94
2022-12-15T17:49:36.597Z,99196.75
2022-12-15T17:52:15.690Z,99194.19
2022-12-15T17:54:42.433Z,99207.91
2022-12-15T17:57:11.597Z,99207.06
2022-12-15T17:59:38.227Z,99218.22
2022-12-15T18:02:05.076Z,99219.03
2022-12-15T18:04:31.971Z,99219.91
2022-12-15T18:07:02.081Z,99223.34
2022-12-15T18:09:29.822Z,99224.22
2022-12-15T18:11:56.661Z,99225.19
2022-12-15T18:14:23.612Z,99212.22
2022-12-15T18:16:50.793Z,99220.84
2022-12-15T18:19:17.392Z,99221.53
2022-12-15T18:21:49.660Z,99220.78
2022-12-15T18:24:17.507Z,99231.25
2022-12-15T18:26:44.443Z,99236.28
2022-12-15T18:29:17.990Z,99232.91
2022-12-15T18:31:46.637Z,99230.34
2022-12-15T18:34:15.062Z,99240.56
2022-12-15T18:36:43.104Z,99242.28
2022-12-15T18:39:21.216Z,99246.66
2022-12-15T18:41:48.610Z,99257.00
2022-12-15T18:44:33.432Z,99259.47
2022-12-15T18:47:00.242Z,99250.06
2022-12-15T18:49:26.903Z,99268.16
2022-12-15T18:51:53.520Z,99270.63
2022-12-15T18:54:22.508Z,99277.47
2022-12-15T18:56:50.024Z,99275.78
2022-12-15T18:59:17.813Z,99281.81
2022-12-15T19:01:45.980Z,99281.78
2022-12-15T19:04:12.859Z,99278.38
2022-12-15T19:06:40.540Z,99277.47
2022-12-15T19:09:20.365Z,99286.97
2022-12-15T19:12:07.275Z,99284.28
2022-12-15T19:14:43.438Z,99276.59
2022-12-15T19:17:29.628Z,99278.38
2022-12-15T19:20:15.259Z,99292.94
2022-12-15T19:22:42.490Z,99289.47
2022-12-15T19:25:24.791Z,99304.13
2022-12-15T19:27:53.146Z,99284.56
2022-12-15T19:30:20.314Z,99304.16
2022-12-15T19:32:47.090Z,99300.59
2022-12-15T19:35:13.964Z,99296.47
2022-12-15T19:37:42.415Z,99314.44
2022-12-15T19:40:18.084Z,99308.44
2022-12-15T19:42:44.747Z,99333.28
2022-12-15T19:45:22.751Z,99343.66
2022-12-15T19:47:50.017Z,99336.78
2022-12-15T19:50:19.074Z,99331.56
2022-12-15T19:52:48.406Z,99336.72
2022-12-15T19:55:23.918Z,99328.94
2022-12-15T19:57:50.669Z,99326.34
2022-12-15T20:00:21.980Z,99322.09
2022-12-15T20:02:55.112Z,99324.63
2022-12-15T20:05:23.502Z,99346.97
2022-12-15T20:07:54.911Z,99353.88
2022-12-15T20:10:31.892Z,99363.31
2022-12-15T20:13:00.743Z,99359.81
2022-12-15T20:15:27.881Z,99362.41
2022-12-15T20:17:57.912Z,99363.22
2022-12-15T20:20:26.897Z,99364.06
2022-12-15T20:22:55.837Z,99367.47
2022-12-15T20:25:41.508Z,99386.41
2022-12-15T20:28:16.078Z,99393.16
2022-12-15T20:30:43.620Z,99399.25
2022-12-15T20:33:11.880Z,99409.56
2022-12-15T20:35:38.892Z,99402.84
2022-12-15T20:38:28.429Z,99412.22
2022-12-15T20:40:55.690Z,99415.63
2022-12-15T20:43:23.021Z,99414.72
2022-12-15T20:45:58.116Z,99398.44
2022-12-15T20:48:25.175Z,99386.34
2022-12-15T20:50:52.960Z,99378.66
2022-12-15T20:53:22.509Z,99359.78
2022-12-15T20:55:50.224Z,99373.47
2022-12-15T20:58:18.419Z,99378.63
2022-12-15T21:00:46.113Z,99377.78
2022-12-15T21:03:34.111Z,99386.38
2022-12-15T21:06:01.032Z,99394.03
2022-12-15T21:08:30.385Z,99399.28
2022-12-15T21:11:01.792Z,99397.53
2022-12-15T21:13:31.444Z,99388.09
2022-12-15T21:15:58.419Z,99409.50
2022-12-15T21:21:20.983Z,99431.97
2022-12-15T21:23:47.910Z,99424.19
2022-12-15T21:26:19.148Z,99431.94
2022-12-15T21:28:47.532Z,99421.63
2022-12-15T21:31:15.512Z,99425.03
2022-12-15T21:33:42.534Z,99429.28
2022-12-15T21:36:18.508Z,99428.47
2022-12-15T21:38:50.902Z,99439.69
2022-12-15T21:41:21.007Z,99432.81
2022-12-15T21:43:48.250Z,99434.63
2022-12-15T21:46:17.385Z,99453.41
2022-12-15T21:49:03.139Z,99443.16
2022-12-15T21:51:30.590Z,99454.28
2022-12-15T21:53:57.467Z,99450.91
2022-12-15T21:56:24.158Z,99456.97
2022-12-15T21:58:52.755Z,99462.94
2022-12-15T22:01:24.480Z,99457.78
2022-12-15T22:03:56.317Z,99464.59
2022-12-15T22:06:28.958Z,99474.06
2022-12-15T22:08:58.722Z,99467.22
2022-12-15T22:11:26.749Z,99476.72
2022-12-15T22:13:55.149Z,99470.75
2022-12-15T22:16:22.661Z,99482.78
2022-12-15T22:18:52.081Z,99478.44
2022-12-15T22:21:19.050Z,99485.34
2022-12-15T22:23:47.979Z,99485.34
2022-12-15T22:26:21.465Z,99478.50
2022-12-15T22:28:48.778Z,99493.06
2022-12-15T22:31:15.874Z,99494.75
2022-12-15T22:33:43.094Z,99493.09
2022-12-15T22:36:09.767Z,99499.13
2022-12-15T22:38:36.663Z,99493.09
2022-12-15T22:41:04.521Z,99479.28
2022-12-15T22:43:34.144Z,99474.13
2022-12-15T22:46:00.947Z,99472.38
2022-12-15T22:48:34.443Z,99466.38
2022-12-15T22:51:01.755Z,99469.88
2022-12-15T22:53:31.833Z,99484.47
2022-12-15T22:55:58.940Z,99494.75
2022-12-15T22:58:30.501Z,99477.59
2022-12-15T23:00:59.172Z,99488.72
2022-12-15T23:03:29.414Z,99483.59
2022-12-15T23:05:56.946Z,99482.75
2022-12-15T23:08:23.550Z,99483.56
2022-12-15T23:11:08.452Z,99471.59
2022-12-15T23:13:35.489Z,99487.94
2022-12-15T23:16:21.800Z,99486.22
2022-12-15T23:19:02.518Z,99486.22
2022-12-15T23:21:29.412Z,99498.28
2022-12-15T23:23:57.619Z,99501.72
2022-12-15T23:26:25.966Z,99509.50
2022-12-15T23:28:53.711Z,99511.25
2022-12-15T23:31:22.170Z,99524.97
2022-12-15T23:33:49.949Z,99510.41
2022-12-15T23:36:19.211Z,99534.44
2022-12-15T23:38:46.605Z,99545.59
2022-12-15T23:41:18.086Z,99546.47
2022-12-15T23:43:44.836Z,99543.06
2022-12-15T23:46:12.008Z,99544.72
2022-12-15T23:48:40.998Z,99550.72
2022-12-15T23:51:13.734Z,99549.91
2022-12-15T23:53:40.903Z,99551.63
2022-12-15T23:56:13.468Z,99555.03
2022-12-15T23:58:41.446Z,99552.47
